createdAt,value
2022-09-12T00:01:08.228Z,146154.19
2022-09-12T00:03:35.748Z,146135.94
2022-09-12T00:06:12.765Z,146140.81
2022-09-12T00:08:39.788Z,146134.69
2022-09-12T00:11:09.009Z,146120.09
2022-09-12T00:13:41.535Z,146111.56
2022-09-12T00:16:15.808Z,146089.66
2022-09-12T00:18:43.828Z,146087.25
2022-09-12T00:21:10.820Z,146095.78
2022-09-12T00:23:37.877Z,146070.16
2022-09-12T00:26:06.659Z,146083.59
2022-09-12T00:28:35.348Z,146055.56
2022-09-12T00:31:05.916Z,146056.78
2022-09-12T00:33:33.721Z,146015.41
2022-09-12T00:36:08.987Z,146019.09
2022-09-12T00:38:38.562Z,145958.28
2022-09-12T00:41:06.239Z,146017.88
2022-09-12T00:43:40.542Z,146025.16
2022-09-12T00:46:22.430Z,146022.75
2022-09-12T00:48:59.682Z,146003.25
2022-09-12T00:51:28.626Z,145970.41
2022-09-12T00:53:57.020Z,145887.72
2022-09-12T00:56:24.413Z,145983.81
2022-09-12T00:58:57.986Z,145985.00
2022-09-12T01:01:28.231Z,145959.50
2022-09-12T01:03:57.706Z,145971.66
2022-09-12T01:06:28.825Z,145930.28
2022-09-12T01:08:56.839Z,145953.44
2022-09-12T01:11:23.818Z,145944.91
2022-09-12T01:13:51.254Z,145961.91
2022-09-12T01:16:18.364Z,145923.00
2022-09-12T01:18:46.017Z,145950.97
2022-09-12T01:21:25.236Z,145954.63
2022-09-12T01:24:21.539Z,145964.34
2022-09-12T01:27:06.390Z,145966.75
2022-09-12T01:29:58.333Z,145944.91
2022-09-12T01:32:38.429Z,145944.91
2022-09-12T01:35:31.774Z,145930.28
2022-09-12T01:38:22.016Z,145936.38
2022-09-12T01:40:58.679Z,145895.03
2022-09-12T01:44:04.214Z,145930.28
2022-09-12T01:46:49.105Z,145901.09
2022-09-12T01:49:24.554Z,145868.28
2022-09-12T01:52:15.483Z,145893.78
2022-09-12T01:54:50.277Z,145886.53
2022-09-12T01:57:39.370Z,145864.63
2022-09-12T02:00:10.731Z,145856.13
2022-09-12T02:03:04.350Z,145828.16
2022-09-12T02:05:47.569Z,145851.25
2022-09-12T02:08:18.829Z,145862.22
2022-09-12T02:10:59.414Z,145869.50
2022-09-12T02:13:38.484Z,145767.41
2022-09-12T02:16:17.727Z,145847.59
2022-09-12T02:18:50.009Z,145801.41
2022-09-12T02:21:19.418Z,145833.03
2022-09-12T02:23:55.548Z,145833.03
2022-09-12T02:26:32.272Z,145788.03
2022-09-12T02:28:59.314Z,145711.50
2022-09-12T02:31:47.449Z,145816.00
2022-09-12T02:34:41.777Z,145825.75
2022-09-12T02:37:46.783Z,145796.56
2022-09-12T02:40:14.645Z,145786.84
2022-09-12T02:42:41.853Z,145760.09
2022-09-12T02:45:10.322Z,145711.50
2022-09-12T02:48:15.053Z,145762.53
2022-09-12T02:50:42.074Z,145747.97
2022-09-12T02:53:10.563Z,145746.72
2022-09-12T02:55:40.103Z,145745.50
2022-09-12T02:58:20.651Z,145691.97
2022-09-12T03:01:14.809Z,145694.44
2022-09-12T03:03:50.878Z,145723.63
2022-09-12T03:06:21.523Z,145722.44
2022-09-12T03:08:58.102Z,145704.19
2022-09-12T03:11:29.796Z,145721.22
2022-09-12T03:14:00.027Z,145707.84
2022-09-12T03:16:39.333Z,145695.63
2022-09-12T03:19:13.265Z,145684.72
2022-09-12T03:21:50.144Z,145672.56
2022-09-12T03:24:38.434Z,145676.19
2022-09-12T03:27:09.217Z,145645.81
2022-09-12T03:29:38.541Z,145610.56
2022-09-12T03:32:05.761Z,145654.31
2022-09-12T03:34:33.258Z,145645.81
2022-09-12T03:37:00.264Z,145648.28
2022-09-12T03:39:27.859Z,145643.41
2022-09-12T03:41:55.882Z,145675.00
2022-09-12T03:44:23.699Z,145599.66
2022-09-12T03:46:50.779Z,145640.97
2022-09-12T03:49:17.862Z,145623.94
2022-09-12T03:51:44.973Z,145606.97
2022-09-12T03:54:12.093Z,145557.16
2022-09-12T03:56:40.988Z,145594.78
2022-09-12T03:59:08.229Z,145577.78
2022-09-12T04:01:35.545Z,145619.06
2022-09-12T04:04:02.962Z,145653.13
2022-09-12T04:06:31.089Z,145626.38
2022-09-12T04:08:58.515Z,145600.84
2022-09-12T04:11:25.613Z,145597.19
2022-09-12T04:13:52.683Z,145557.16
2022-09-12T04:16:20.134Z,145568.06
2022-09-12T04:18:47.434Z,145589.94
2022-09-12T04:21:17.223Z,145560.75
2022-09-12T04:23:44.377Z,145598.44
2022-09-12T04:26:13.588Z,145587.50
2022-09-12T04:28:41.452Z,145551.06
2022-09-12T04:31:12.464Z,145546.19
2022-09-12T04:33:39.830Z,145507.34
2022-09-12T04:36:09.941Z,145548.66
2022-09-12T04:38:37.784Z,145517.06
2022-09-12T04:41:17.094Z,145650.66
2022-09-12T04:43:48.233Z,145653.13
2022-09-12T04:46:17.362Z,145636.09
2022-09-12T04:48:44.435Z,145639.75
2022-09-12T04:51:21.182Z,145622.72
2022-09-12T04:53:50.513Z,145603.31
2022-09-12T04:56:18.674Z,145536.47
2022-09-12T04:58:46.455Z,145602.09
2022-09-12T05:01:16.974Z,145589.94
2022-09-12T05:03:45.698Z,145587.50
2022-09-12T05:06:25.067Z,145600.84
2022-09-12T05:08:52.739Z,145587.50
2022-09-12T05:11:26.636Z,145585.09
2022-09-12T05:13:55.677Z,145580.22
2022-09-12T05:16:24.216Z,145504.91
2022-09-12T05:18:51.694Z,145596.00
2022-09-12T05:21:22.756Z,145582.63
2022-09-12T05:23:54.814Z,145611.81
2022-09-12T05:26:23.051Z,145606.97
2022-09-12T05:28:52.019Z,145565.66
2022-09-12T05:31:27.380Z,145604.50
2022-09-12T05:33:55.601Z,145628.78
2022-09-12T05:36:25.865Z,145653.13
2022-09-12T05:38:53.944Z,145586.28
2022-09-12T05:41:27.034Z,145675.00
2022-09-12T05:43:56.322Z,145667.69
2022-09-12T05:46:25.983Z,145676.19
2022-09-12T05:48:56.373Z,145675.00
2022-09-12T05:51:28.905Z,145699.34
2022-09-12T05:53:58.485Z,145711.50
2022-09-12T05:56:28.443Z,145730.94
2022-09-12T05:58:59.688Z,145673.75
2022-09-12T06:01:27.880Z,145762.53
2022-09-12T06:03:57.648Z,145758.88
2022-09-12T06:06:25.292Z,145789.28
2022-09-12T06:08:54.763Z,145813.59
2022-09-12T06:11:25.671Z,145847.59
2022-09-12T06:13:53.282Z,145824.50
2022-09-12T06:16:26.031Z,145856.13
2022-09-12T06:18:58.373Z,145850.06
2022-09-12T06:21:26.772Z,145871.94
2022-09-12T06:23:55.376Z,145919.34
2022-09-12T06:26:26.122Z,145959.50
2022-09-12T06:28:55.478Z,145988.66
2022-09-12T06:31:31.529Z,145978.94
2022-09-12T06:34:01.755Z,146013.03
2022-09-12T06:36:34.424Z,146025.16
2022-09-12T06:39:04.015Z,146087.25
2022-09-12T06:41:32.375Z,146056.78
2022-09-12T06:44:00.726Z,146145.66
2022-09-12T06:46:28.609Z,146151.72
2022-09-12T06:48:57.490Z,146143.22
2022-09-12T06:51:24.613Z,146208.94
2022-09-12T06:53:54.116Z,146236.94
2022-09-12T06:56:23.529Z,146300.25
2022-09-12T06:58:51.502Z,146314.84
2022-09-12T07:01:21.895Z,146358.63
2022-09-12T07:03:55.063Z,146295.31
2022-09-12T07:06:29.686Z,146446.41
2022-09-12T07:08:58.676Z,146469.53
2022-09-12T07:11:29.104Z,146515.81
2022-09-12T07:13:57.958Z,146530.41
2022-09-12T07:16:25.673Z,146532.81
2022-09-12T07:18:59.231Z,146456.13
2022-09-12T07:21:27.211Z,146564.50
2022-09-12T07:24:03.312Z,146554.75
2022-09-12T07:26:30.554Z,146616.91
2022-09-12T07:29:18.624Z,146699.78
2022-09-12T07:31:46.149Z,146687.56
2022-09-12T07:34:13.854Z,146654.69
2022-09-12T07:36:40.832Z,146762.00
2022-09-12T07:39:07.846Z,146829.00
2022-09-12T07:41:34.937Z,146882.66
2022-09-12T07:44:03.133Z,146913.16
2022-09-12T07:46:31.099Z,146929.00
2022-09-12T07:49:00.037Z,146899.75
2022-09-12T07:51:29.175Z,146990.00
2022-09-12T07:53:56.731Z,147043.69
2022-09-12T07:56:29.391Z,147053.44
2022-09-12T07:58:57.205Z,147070.53
2022-09-12T08:01:24.625Z,147131.53
2022-09-12T08:03:59.303Z,147220.63
2022-09-12T08:06:28.141Z,147262.16
2022-09-12T08:08:56.851Z,147287.78
2022-09-12T08:11:25.834Z,147372.03
2022-09-12T08:13:55.607Z,147368.34
2022-09-12T08:16:25.778Z,147369.56
2022-09-12T08:18:53.112Z,147407.47
2022-09-12T08:21:25.204Z,147485.59
2022-09-12T08:23:57.643Z,147552.78
2022-09-12T08:26:25.062Z,147629.75
2022-09-12T08:28:53.091Z,147681.06
2022-09-12T08:31:22.520Z,147695.78
2022-09-12T08:33:50.009Z,147705.53
2022-09-12T08:36:22.717Z,147744.66
2022-09-12T08:38:54.399Z,147786.22
2022-09-12T08:41:39.693Z,147775.25
2022-09-12T08:44:20.532Z,147760.59
2022-09-12T08:47:09.304Z,147792.38
2022-09-12T08:49:46.360Z,147764.22
2022-09-12T08:52:19.290Z,147815.59
2022-09-12T08:54:46.725Z,147810.69
2022-09-12T08:57:15.128Z,147840.00
2022-09-12T08:59:44.784Z,147884.03
2022-09-12T09:02:36.635Z,147859.56
2022-09-12T09:05:23.779Z,147888.94
2022-09-12T09:08:00.250Z,147885.25
2022-09-12T09:10:36.444Z,147860.81
2022-09-12T09:14:04.980Z,147895.03
2022-09-12T09:16:39.431Z,147899.91
2022-09-12T09:19:17.339Z,147906.00
2022-09-12T09:22:03.142Z,147855.88
2022-09-12T09:24:40.135Z,147854.69
2022-09-12T09:27:39.993Z,147871.81
2022-09-12T09:30:15.333Z,147909.69
2022-09-12T09:32:44.839Z,147918.25
2022-09-12T09:35:19.306Z,147970.91
2022-09-12T09:38:01.861Z,148047.91
2022-09-12T09:40:44.564Z,148055.28
2022-09-12T09:43:23.851Z,148101.75
2022-09-12T09:45:52.091Z,148118.88
2022-09-12T09:48:31.207Z,148155.63
2022-09-12T09:51:05.038Z,148126.19
2022-09-12T09:53:40.010Z,148162.94
2022-09-12T09:56:33.977Z,148172.75
2022-09-12T09:59:13.110Z,148189.84
2022-09-12T10:01:49.997Z,148194.75
2022-09-12T10:04:22.739Z,148198.44
2022-09-12T10:07:12.818Z,148241.22
2022-09-12T10:09:40.173Z,148324.50
2022-09-12T10:12:29.176Z,148353.91
2022-09-12T10:15:00.632Z,148329.38
2022-09-12T10:17:42.036Z,148280.41
2022-09-12T10:20:46.494Z,148277.94
2022-09-12T10:23:19.431Z,148251.06
2022-09-12T10:25:48.526Z,148264.47
2022-09-12T10:28:27.017Z,148281.63
2022-09-12T10:30:55.071Z,148282.84
2022-09-12T10:33:25.293Z,148236.34
2022-09-12T10:35:55.078Z,148214.34
2022-09-12T10:38:28.933Z,148183.75
2022-09-12T10:41:03.454Z,148155.63
2022-09-12T10:43:33.576Z,148198.44
2022-09-12T10:46:24.968Z,148287.78
2022-09-12T10:49:13.372Z,148357.56
2022-09-12T10:51:40.448Z,148390.63
2022-09-12T10:54:11.473Z,148380.81
2022-09-12T10:56:57.279Z,148410.19
2022-09-12T10:59:32.139Z,148437.13
2022-09-12T11:02:09.114Z,148483.63
2022-09-12T11:05:08.150Z,148522.84
2022-09-12T11:07:38.122Z,148488.53
2022-09-12T11:10:34.272Z,148503.22
2022-09-12T11:13:25.300Z,148481.22
2022-09-12T11:16:23.239Z,148468.97
2022-09-12T11:19:27.895Z,148488.53
2022-09-12T11:22:31.941Z,148488.53
2022-09-12T11:25:05.401Z,148445.69
2022-09-12T11:27:54.221Z,148391.81
2022-09-12T11:30:21.237Z,148356.31
2022-09-12T11:32:48.265Z,148363.69
2022-09-12T11:35:17.467Z,148371.03
2022-09-12T11:37:56.975Z,148397.97
2022-09-12T11:40:37.182Z,148356.31
2022-09-12T11:43:43.211Z,148484.84
2022-09-12T11:46:34.734Z,148618.41
2022-09-12T11:49:13.574Z,148733.59
2022-09-12T11:51:50.505Z,148792.38
2022-09-12T11:54:26.085Z,148832.81
2022-09-12T11:57:19.787Z,148862.25
2022-09-12T11:59:57.851Z,148897.75
2022-09-12T12:02:30.335Z,148843.88
2022-09-12T12:05:29.861Z,148838.97
2022-09-12T12:08:01.983Z,148819.34
2022-09-12T12:10:34.809Z,148812.00
2022-09-12T12:13:11.947Z,148718.81
2022-09-12T12:15:47.680Z,148679.66
2022-09-12T12:18:24.341Z,148668.59
2022-09-12T12:20:53.133Z,148664.97
2022-09-12T12:23:22.896Z,148596.38
2022-09-12T12:25:55.727Z,148579.22
2022-09-12T12:28:50.703Z,148557.16
2022-09-12T12:31:18.379Z,148559.63
2022-09-12T12:33:45.392Z,148611.06
2022-09-12T12:36:30.652Z,148748.28
2022-09-12T12:38:57.661Z,148838.97
2022-09-12T12:41:24.659Z,148927.25
2022-09-12T12:43:54.438Z,148887.97
2022-09-12T12:46:28.732Z,148921.09
2022-09-12T12:49:09.479Z,148944.38
2022-09-12T12:51:54.702Z,148924.78
2022-09-12T12:54:47.878Z,148887.97
2022-09-12T12:57:17.624Z,148846.31
2022-09-12T12:59:49.567Z,148830.41
2022-09-12T13:02:24.030Z,148826.72
2022-09-12T13:04:52.493Z,148854.88
2022-09-12T13:07:36.942Z,148816.91
2022-09-12T13:10:07.154Z,148861.00
2022-09-12T13:12:38.063Z,148858.56
2022-09-12T13:15:48.218Z,148862.25
2022-09-12T13:18:48.247Z,148851.19
2022-09-12T13:21:21.489Z,148804.66
2022-09-12T13:24:12.910Z,148810.75
2022-09-12T13:26:46.902Z,148835.28
2022-09-12T13:29:19.742Z,148819.34
2022-09-12T13:31:51.004Z,148753.19
2022-09-12T13:34:43.459Z,148821.81
2022-09-12T13:37:34.873Z,148861.00
2022-09-12T13:40:22.504Z,148845.09
2022-09-12T13:43:05.340Z,148878.16
2022-09-12T13:45:35.074Z,148864.69
2022-09-12T13:48:04.387Z,148760.50
2022-09-12T13:50:39.143Z,148804.66
2022-09-12T13:53:13.839Z,148753.19
2022-09-12T13:55:46.115Z,148794.84
2022-09-12T13:58:23.493Z,148799.75
2022-09-12T14:01:15.784Z,148799.75
2022-09-12T14:04:08.714Z,148819.34
2022-09-12T14:06:49.637Z,148819.34
2022-09-12T14:09:25.298Z,148761.78
2022-09-12T14:11:52.998Z,148738.50
2022-09-12T14:14:43.333Z,148758.09
2022-09-12T14:17:20.741Z,148791.16
2022-09-12T14:19:51.165Z,148807.13
2022-09-12T14:22:18.496Z,148771.56
2022-09-12T14:24:50.423Z,148797.28
2022-09-12T14:27:19.602Z,148782.59
2022-09-12T14:29:47.344Z,148777.69
2022-09-12T14:32:24.073Z,148738.50
2022-09-12T14:35:12.748Z,148765.47
2022-09-12T14:37:40.066Z,148809.53
2022-09-12T14:40:18.848Z,148821.81
2022-09-12T14:42:49.503Z,148816.91
2022-09-12T14:45:22.819Z,148814.44
2022-09-12T14:47:52.800Z,148821.81
2022-09-12T14:50:26.420Z,148794.84
2022-09-12T14:53:05.226Z,148831.59
2022-09-12T14:55:42.222Z,148825.50
2022-09-12T14:58:29.563Z,148851.19
2022-09-12T15:01:02.510Z,148840.19
2022-09-12T15:03:35.063Z,148895.34
2022-09-12T15:06:03.701Z,148890.44
2022-09-12T15:08:31.840Z,148907.59
2022-09-12T15:10:59.655Z,148895.34
2022-09-12T15:13:28.470Z,148883.06
2022-09-12T15:15:58.087Z,148874.47
2022-09-12T15:18:27.558Z,148841.41
2022-09-12T15:21:17.633Z,148789.94
2022-09-12T15:23:46.290Z,148816.91
2022-09-12T15:26:22.437Z,148819.34
2022-09-12T15:28:51.156Z,148816.91
2022-09-12T15:31:30.190Z,148819.34
2022-09-12T15:33:59.631Z,148847.50
2022-09-12T15:36:28.718Z,148818.13
2022-09-12T15:38:56.090Z,148900.25
2022-09-12T15:41:29.478Z,148853.69
2022-09-12T15:43:57.115Z,148870.78
2022-09-12T15:46:24.350Z,149003.22
2022-09-12T15:48:51.401Z,149112.41
2022-09-12T15:51:21.503Z,149171.28
2022-09-12T15:53:50.257Z,149263.31
2022-09-12T15:56:19.355Z,149373.72
2022-09-12T15:58:58.379Z,149437.56
2022-09-12T16:01:27.024Z,149460.88
2022-09-12T16:03:54.152Z,149538.16
2022-09-12T16:06:22.129Z,149452.28
2022-09-12T16:08:49.510Z,149602.03
2022-09-12T16:11:21.225Z,149641.34
2022-09-12T16:13:48.890Z,149626.63
2022-09-12T16:16:15.938Z,149570.06
2022-09-12T16:18:43.162Z,149417.91
2022-09-12T16:21:14.937Z,149249.75
2022-09-12T16:23:43.918Z,149197.00
2022-09-12T16:26:11.087Z,149194.56
2022-09-12T16:28:38.864Z,149174.97
2022-09-12T16:31:07.331Z,149183.50
2022-09-12T16:33:34.848Z,149123.41
2022-09-12T16:36:07.256Z,149071.88
2022-09-12T16:38:35.680Z,149057.19
2022-09-12T16:41:05.338Z,149105.03
2022-09-12T16:43:34.018Z,148976.25
2022-09-12T16:46:13.202Z,148921.09
2022-09-12T16:48:52.180Z,148883.06
2022-09-12T16:51:22.506Z,148885.53
2022-09-12T16:53:50.468Z,148770.38
2022-09-12T16:56:17.811Z,148789.94
2022-09-12T16:58:45.445Z,148775.25
2022-09-12T17:01:15.556Z,148740.94
2022-09-12T17:03:43.056Z,148675.97
2022-09-12T17:06:18.239Z,148630.63
2022-09-12T17:08:48.533Z,148564.53
2022-09-12T17:11:18.661Z,148515.47
2022-09-12T17:14:06.659Z,148486.13
2022-09-12T17:16:39.548Z,148449.38
2022-09-12T17:19:07.734Z,148406.50
2022-09-12T17:21:35.284Z,148337.91
2022-09-12T17:24:03.480Z,148344.06
2022-09-12T17:26:30.542Z,148341.59
2022-09-12T17:28:57.711Z,148319.56
2022-09-12T17:31:24.795Z,148270.63
2022-09-12T17:33:56.773Z,148273.06
2022-09-12T17:36:24.407Z,148248.59
2022-09-12T17:38:51.734Z,148209.47
2022-09-12T17:41:21.448Z,148164.19
2022-09-12T17:43:59.664Z,148155.63
2022-09-12T17:46:37.381Z,148080.97
2022-09-12T17:49:08.302Z,148058.94
2022-09-12T17:51:35.818Z,148055.28
2022-09-12T17:54:11.766Z,148021.00
2022-09-12T17:56:39.598Z,147986.78
2022-09-12T17:59:08.417Z,147940.31
2022-09-12T18:01:54.342Z,147847.38
2022-09-12T18:04:21.395Z,147891.34
2022-09-12T18:06:50.095Z,147815.59
2022-09-12T18:09:19.852Z,147871.81
2022-09-12T18:11:48.324Z,147852.25
2022-09-12T18:14:15.960Z,147810.69
2022-09-12T18:16:43.259Z,147781.34
2022-09-12T18:19:10.968Z,147722.66
2022-09-12T18:21:38.566Z,147730.00
2022-09-12T18:24:06.330Z,147727.53
2022-09-12T18:26:33.727Z,147712.84
2022-09-12T18:29:00.780Z,147710.44
2022-09-12T18:31:30.114Z,147661.53
2022-09-12T18:34:02.444Z,147649.31
2022-09-12T18:36:30.618Z,147626.09
2022-09-12T18:38:58.874Z,147617.53
2022-09-12T18:41:26.438Z,147616.31
2022-09-12T18:43:58.042Z,147568.69
2022-09-12T18:46:26.475Z,147546.69
2022-09-12T18:48:57.860Z,147532.06
2022-09-12T18:51:31.180Z,147530.84
2022-09-12T18:54:00.925Z,147453.84
2022-09-12T18:56:34.270Z,147512.53
2022-09-12T18:59:02.773Z,147477.06
2022-09-12T19:01:32.002Z,147469.69
2022-09-12T19:04:00.859Z,147470.91
2022-09-12T19:06:30.286Z,147468.50
2022-09-12T19:08:58.662Z,147461.16
2022-09-12T19:11:27.261Z,147419.63
2022-09-12T19:13:55.430Z,147461.16
2022-09-12T19:16:27.727Z,147425.78
2022-09-12T19:18:55.994Z,147446.50
2022-09-12T19:21:25.582Z,147372.03
2022-09-12T19:23:55.815Z,147383.00
2022-09-12T19:26:23.481Z,147391.56
2022-09-12T19:28:50.833Z,147336.63
2022-09-12T19:31:20.177Z,147359.81
2022-09-12T19:33:48.219Z,147341.50
2022-09-12T19:36:41.324Z,147337.81
2022-09-12T19:39:07.460Z,147312.22
2022-09-12T19:41:34.847Z,147293.91
2022-09-12T19:44:02.868Z,147302.47
2022-09-12T19:46:29.883Z,147298.78
2022-09-12T19:48:56.987Z,147306.09
2022-09-12T19:51:24.257Z,147295.13
2022-09-12T19:53:51.612Z,147263.38
2022-09-12T19:56:18.686Z,147248.75
2022-09-12T19:58:52.264Z,147225.50
2022-09-12T20:01:28.150Z,147226.72
2022-09-12T20:03:57.050Z,147236.47
2022-09-12T20:06:24.592Z,147209.63
2022-09-12T20:08:51.586Z,147180.34
2022-09-12T20:11:21.126Z,147226.72
2022-09-12T20:13:48.110Z,147219.41
2022-09-12T20:16:22.922Z,147201.13
2022-09-12T20:18:56.604Z,147204.72
2022-09-12T20:21:30.862Z,147219.41
2022-09-12T20:24:06.308Z,147197.44
2022-09-12T20:26:33.741Z,147163.25
2022-09-12T20:29:00.809Z,147180.34
2022-09-12T20:31:28.222Z,147142.53
2022-09-12T20:33:55.281Z,147124.22
2022-09-12T20:36:22.529Z,147077.88
2022-09-12T20:38:56.591Z,147136.41
2022-09-12T20:41:25.426Z,147070.53
2022-09-12T20:43:54.088Z,147097.38
2022-09-12T20:46:22.626Z,147071.75
2022-09-12T20:48:50.882Z,147064.44
2022-09-12T20:51:19.304Z,147065.66
2022-09-12T20:53:47.285Z,147058.31
2022-09-12T20:56:14.961Z,147051.03
2022-09-12T20:58:44.247Z,147033.94
2022-09-12T21:01:13.456Z,147033.94
2022-09-12T21:03:42.027Z,146969.25
2022-09-12T21:06:10.634Z,147029.06
2022-09-12T21:08:37.965Z,146979.00
2022-09-12T21:11:06.101Z,146998.56
2022-09-12T21:13:33.256Z,146977.78
2022-09-12T21:16:01.899Z,146981.47
2022-09-12T21:18:29.435Z,146950.97
2022-09-12T21:20:56.690Z,146890.00
2022-09-12T21:23:25.468Z,146931.47
2022-09-12T21:25:52.959Z,146885.13
2022-09-12T21:28:21.331Z,146870.47
2022-09-12T21:30:49.526Z,146860.72
2022-09-12T21:33:18.238Z,146872.91
2022-09-12T21:35:47.259Z,146897.28
2022-09-12T21:38:15.429Z,146875.34
2022-09-12T21:40:42.662Z,146840.00
2022-09-12T21:43:12.798Z,146843.63
2022-09-12T21:45:40.254Z,146785.16
2022-09-12T21:48:07.533Z,146831.47
2022-09-12T21:50:35.032Z,146824.13
2022-09-12T21:53:01.979Z,146805.84
2022-09-12T21:55:29.143Z,146808.31
2022-09-12T21:57:56.465Z,146793.69
2022-09-12T22:00:23.571Z,146704.66
2022-09-12T22:02:50.777Z,146787.56
2022-09-12T22:05:20.275Z,146811.97
2022-09-12T22:07:47.254Z,146775.41
2022-09-12T22:10:15.120Z,146838.75
2022-09-12T22:12:46.059Z,146753.47
2022-09-12T22:15:38.757Z,146724.19
2022-09-12T22:18:01.090Z,146777.81
2022-09-12T22:20:28.470Z,146716.91
2022-09-12T22:23:14.111Z,146722.97
2022-09-12T22:25:41.208Z,146746.13
2022-09-12T22:28:08.168Z,146744.91
2022-09-12T22:30:35.412Z,146746.13
2022-09-12T22:33:02.410Z,146785.16
2022-09-12T22:35:29.457Z,146742.47
2022-09-12T22:37:56.428Z,146709.50
2022-09-12T22:40:23.534Z,146796.09
2022-09-12T22:42:53.915Z,146749.78
2022-09-12T22:45:20.960Z,146763.19
2022-09-12T22:47:48.001Z,146751.00
2022-09-12T22:50:15.281Z,146743.72
2022-09-12T22:52:42.276Z,146726.63
2022-09-12T22:55:09.841Z,146714.44
2022-09-12T22:57:37.346Z,146677.81
2022-09-12T23:00:07.875Z,146692.44
2022-09-12T23:02:34.858Z,146682.69
2022-09-12T23:05:02.562Z,146677.81
2022-09-12T23:07:29.682Z,146591.31
2022-09-12T23:09:56.839Z,146646.13
2022-09-12T23:12:24.222Z,146643.72
2022-09-12T23:14:51.203Z,146636.41
2022-09-12T23:17:18.238Z,146614.47
2022-09-12T23:19:45.623Z,146593.78
2022-09-12T23:22:12.630Z,146568.16
2022-09-12T23:24:39.636Z,146547.47
2022-09-12T23:27:06.621Z,146556.00
2022-09-12T23:29:35.210Z,146520.69
2022-09-12T23:32:03.690Z,146538.94
2022-09-12T23:34:30.897Z,146515.81
2022-09-12T23:36:57.952Z,146495.09
2022-09-12T23:39:24.954Z,146504.81
2022-09-12T23:41:52.100Z,146507.28
2022-09-12T23:44:19.073Z,146519.47
2022-09-12T23:46:46.069Z,146504.81
2022-09-12T23:49:13.051Z,146499.94
2022-09-12T23:51:40.062Z,146435.41
2022-09-12T23:54:07.058Z,146496.28
2022-09-12T23:56:34.303Z,146509.69
2022-09-12T23:59:01.279Z,146524.34
